sensor_id;sensor_type;location;lat;lon;timestamp;temperature;humidity
7606;DHT22;3844;53.360;9.738;2022-12-26T00:01:04;6.50;90.50
7606;DHT22;3844;53.360;9.738;2022-12-26T00:05:25;6.50;90.40
7606;DHT22;3844;53.360;9.738;2022-12-26T00:07:39;6.50;90.40
7606;DHT22;3844;53.360;9.738;2022-12-26T00:10:05;6.40;90.50
7606;DHT22;3844;53.360;9.738;2022-12-26T00:14:22;6.40;90.50
7606;DHT22;3844;53.360;9.738;2022-12-26T00:16:35;6.40;90.50
7606;DHT22;3844;53.360;9.738;2022-12-26T00:18:45;6.40;90.50
7606;DHT22;3844;53.360;9.738;2022-12-26T00:22:53;6.40;90.50
7606;DHT22;3844;53.360;9.738;2022-12-26T00:24:59;6.40;90.50
7606;DHT22;3844;53.360;9.738;2022-12-26T00:29:07;6.40;90.50
7606;DHT22;3844;53.360;9.738;2022-12-26T00:31:24;6.40;90.40
7606;DHT22;3844;53.360;9.738;2022-12-26T00:33:44;6.40;90.50
7606;DHT22;3844;53.360;9.738;2022-12-26T00:37:55;6.40;90.50
7606;DHT22;3844;53.360;9.738;2022-12-26T00:40:18;6.40;90.40
7606;DHT22;3844;53.360;9.738;2022-12-26T00:42:23;6.40;90.40
7606;DHT22;3844;53.360;9.738;2022-12-26T00:44:56;6.40;90.40
7606;DHT22;3844;53.360;9.738;2022-12-26T00:47:22;6.40;90.40
7606;DHT22;3844;53.360;9.738;2022-12-26T00:49:23;6.40;90.40
7606;DHT22;3844;53.360;9.738;2022-12-26T00:51:27;6.40;90.40
7606;DHT22;3844;53.360;9.738;2022-12-26T00:53:31;6.40;90.40
7606;DHT22;3844;53.360;9.738;2022-12-26T00:55:50;6.50;90.40
7606;DHT22;3844;53.360;9.738;2022-12-26T00:58:01;6.50;90.40
7606;DHT22;3844;53.360;9.738;2022-12-26T01:00:11;6.50;90.40
7606;DHT22;3844;53.360;9.738;2022-12-26T01:02:33;6.50;90.40
7606;DHT22;3844;53.360;9.738;2022-12-26T01:04:57;6.50;90.40
7606;DHT22;3844;53.360;9.738;2022-12-26T01:07:07;6.50;90.40
7606;DHT22;3844;53.360;9.738;2022-12-26T01:11:39;6.50;90.40
7606;DHT22;3844;53.360;9.738;2022-12-26T01:13:48;6.50;90.40
7606;DHT22;3844;53.360;9.738;2022-12-26T01:18:23;6.50;90.40
7606;DHT22;3844;53.360;9.738;2022-12-26T01:20:57;6.50;90.40
7606;DHT22;3844;53.360;9.738;2022-12-26T01:23:38;6.50;90.40
7606;DHT22;3844;53.360;9.738;2022-12-26T01:25:44;6.50;90.40
7606;DHT22;3844;53.360;9.738;2022-12-26T01:27:52;6.50;90.40
7606;DHT22;3844;53.360;9.738;2022-12-26T01:30:04;6.50;90.40
7606;DHT22;3844;53.360;9.738;2022-12-26T01:32:21;6.50;90.40
7606;DHT22;3844;53.360;9.738;2022-12-26T01:34:46;6.50;90.40
7606;DHT22;3844;53.360;9.738;2022-12-26T01:36:54;6.50;90.30
7606;DHT22;3844;53.360;9.738;2022-12-26T01:39:01;6.50;90.30
7606;DHT22;3844;53.360;9.738;2022-12-26T01:41:21;6.60;90.20
7606;DHT22;3844;53.360;9.738;2022-12-26T01:51:22;6.70;90.20
7606;DHT22;3844;53.360;9.738;2022-12-26T01:58:30;6.70;90.10
7606;DHT22;3844;53.360;9.738;2022-12-26T02:00:42;6.70;90.20
7606;DHT22;3844;53.360;9.738;2022-12-26T02:02:49;6.70;90.10
7606;DHT22;3844;53.360;9.738;2022-12-26T02:05:14;6.70;90.10
7606;DHT22;3844;53.360;9.738;2022-12-26T02:07:49;6.70;90.10
7606;DHT22;3844;53.360;9.738;2022-12-26T02:12:34;6.70;90.10
7606;DHT22;3844;53.360;9.738;2022-12-26T02:14:39;6.70;90.10
7606;DHT22;3844;53.360;9.738;2022-12-26T02:16:45;6.80;90.10
7606;DHT22;3844;53.360;9.738;2022-12-26T02:23:59;6.80;90.10
7606;DHT22;3844;53.360;9.738;2022-12-26T02:34:03;6.90;90.10
7606;DHT22;3844;53.360;9.738;2022-12-26T02:36:56;6.90;90.10
7606;DHT22;3844;53.360;9.738;2022-12-26T02:47:26;6.90;90.00
7606;DHT22;3844;53.360;9.738;2022-12-26T02:52:23;6.90;90.00
7606;DHT22;3844;53.360;9.738;2022-12-26T02:57:16;6.90;90.00
7606;DHT22;3844;53.360;9.738;2022-12-26T02:59:51;6.90;90.00
7606;DHT22;3844;53.360;9.738;2022-12-26T03:02:55;6.90;90.00
7606;DHT22;3844;53.360;9.738;2022-12-26T03:05:24;6.90;90.00
7606;DHT22;3844;53.360;9.738;2022-12-26T03:07:56;6.90;90.00
7606;DHT22;3844;53.360;9.738;2022-12-26T03:10:46;6.90;90.00
7606;DHT22;3844;53.360;9.738;2022-12-26T03:13:30;6.90;90.00
7606;DHT22;3844;53.360;9.738;2022-12-26T03:15:51;6.90;90.00
7606;DHT22;3844;53.360;9.738;2022-12-26T03:18:11;6.90;90.00
7606;DHT22;3844;53.360;9.738;2022-12-26T03:20:15;6.90;90.00
7606;DHT22;3844;53.360;9.738;2022-12-26T03:24:47;6.90;90.00
7606;DHT22;3844;53.360;9.738;2022-12-26T03:29:31;7.00;90.00
7606;DHT22;3844;53.360;9.738;2022-12-26T03:31:56;7.00;90.00
7606;DHT22;3844;53.360;9.738;2022-12-26T03:34:22;7.00;90.00
7606;DHT22;3844;53.360;9.738;2022-12-26T03:42:31;7.10;89.80
7606;DHT22;3844;53.360;9.738;2022-12-26T03:45:10;7.10;89.80
7606;DHT22;3844;53.360;9.738;2022-12-26T03:50:41;7.10;89.80
7606;DHT22;3844;53.360;9.738;2022-12-26T03:53:30;7.10;89.80
7606;DHT22;3844;53.360;9.738;2022-12-26T03:56:31;7.10;89.80
7606;DHT22;3844;53.360;9.738;2022-12-26T04:01:23;7.10;89.80
7606;DHT22;3844;53.360;9.738;2022-12-26T04:03:49;7.10;89.80
7606;DHT22;3844;53.360;9.738;2022-12-26T04:06:25;7.10;89.80
7606;DHT22;3844;53.360;9.738;2022-12-26T04:09:02;7.10;89.80
7606;DHT22;3844;53.360;9.738;2022-12-26T04:11:44;7.10;89.80
7606;DHT22;3844;53.360;9.738;2022-12-26T04:17:32;7.10;89.70
7606;DHT22;3844;53.360;9.738;2022-12-26T04:20:00;7.10;89.80
7606;DHT22;3844;53.360;9.738;2022-12-26T04:25:17;7.20;89.70
7606;DHT22;3844;53.360;9.738;2022-12-26T04:30:00;7.20;89.70
7606;DHT22;3844;53.360;9.738;2022-12-26T04:32:33;7.20;89.70
7606;DHT22;3844;53.360;9.738;2022-12-26T04:35:02;7.20;89.70
7606;DHT22;3844;53.360;9.738;2022-12-26T04:37:30;7.20;89.70
7606;DHT22;3844;53.360;9.738;2022-12-26T04:39:53;7.20;89.70
7606;DHT22;3844;53.360;9.738;2022-12-26T04:42:12;7.20;89.70
7606;DHT22;3844;53.360;9.738;2022-12-26T04:44:40;7.20;89.70
7606;DHT22;3844;53.360;9.738;2022-12-26T04:46:45;7.20;89.70
7606;DHT22;3844;53.360;9.738;2022-12-26T04:48:55;7.20;89.70
7606;DHT22;3844;53.360;9.738;2022-12-26T04:51:25;7.20;89.70
7606;DHT22;3844;53.360;9.738;2022-12-26T04:53:41;7.20;89.70
7606;DHT22;3844;53.360;9.738;2022-12-26T04:57:46;7.20;89.70
7606;DHT22;3844;53.360;9.738;2022-12-26T04:59:53;7.20;89.70
7606;DHT22;3844;53.360;9.738;2022-12-26T05:01:58;7.20;89.70
7606;DHT22;3844;53.360;9.738;2022-12-26T05:04:23;7.30;89.70
7606;DHT22;3844;53.360;9.738;2022-12-26T05:06:46;7.30;89.60
7606;DHT22;3844;53.360;9.738;2022-12-26T05:09:08;7.30;89.70
7606;DHT22;3844;53.360;9.738;2022-12-26T05:11:38;7.30;89.70
7606;DHT22;3844;53.360;9.738;2022-12-26T05:13:46;7.30;89.60
7606;DHT22;3844;53.360;9.738;2022-12-26T05:15:50;7.30;89.70
7606;DHT22;3844;53.360;9.738;2022-12-26T05:18:09;7.30;89.60
7606;DHT22;3844;53.360;9.738;2022-12-26T05:20:28;7.30;89.60
7606;DHT22;3844;53.360;9.738;2022-12-26T05:25:28;7.30;89.60
7606;DHT22;3844;53.360;9.738;2022-12-26T05:27:53;7.30;89.60
7606;DHT22;3844;53.360;9.738;2022-12-26T05:30:18;7.40;89.60
7606;DHT22;3844;53.360;9.738;2022-12-26T05:32:34;7.40;89.60
7606;DHT22;3844;53.360;9.738;2022-12-26T05:36:57;7.40;89.60
7606;DHT22;3844;53.360;9.738;2022-12-26T05:39:07;7.40;89.60
7606;DHT22;3844;53.360;9.738;2022-12-26T05:43:30;7.40;89.50
7606;DHT22;3844;53.360;9.738;2022-12-26T05:45:40;7.40;89.50
7606;DHT22;3844;53.360;9.738;2022-12-26T05:49:47;7.40;89.50
7606;DHT22;3844;53.360;9.738;2022-12-26T05:52:13;7.40;89.50
7606;DHT22;3844;53.360;9.738;2022-12-26T05:54:19;7.40;89.40
7606;DHT22;3844;53.360;9.738;2022-12-26T05:58:59;7.40;89.40
7606;DHT22;3844;53.360;9.738;2022-12-26T06:01:16;7.40;89.50
7606;DHT22;3844;53.360;9.738;2022-12-26T06:05:29;7.50;89.40
7606;DHT22;3844;53.360;9.738;2022-12-26T06:09:35;7.50;89.40
7606;DHT22;3844;53.360;9.738;2022-12-26T06:13:40;7.50;89.40
7606;DHT22;3844;53.360;9.738;2022-12-26T06:15:41;7.50;89.40
7606;DHT22;3844;53.360;9.738;2022-12-26T06:17:53;7.50;89.40
7606;DHT22;3844;53.360;9.738;2022-12-26T06:19:57;7.50;89.40
7606;DHT22;3844;53.360;9.738;2022-12-26T06:21:58;7.50;89.40
7606;DHT22;3844;53.360;9.738;2022-12-26T06:23:59;7.50;89.40
7606;DHT22;3844;53.360;9.738;2022-12-26T06:26:00;7.50;89.40
7606;DHT22;3844;53.360;9.738;2022-12-26T06:34:22;7.50;89.40
7606;DHT22;3844;53.360;9.738;2022-12-26T06:36:48;7.60;89.40
7606;DHT22;3844;53.360;9.738;2022-12-26T06:38:52;7.60;89.40
7606;DHT22;3844;53.360;9.738;2022-12-26T06:40:56;7.60;89.40
7606;DHT22;3844;53.360;9.738;2022-12-26T06:43:07;7.60;89.40
7606;DHT22;3844;53.360;9.738;2022-12-26T06:45:09;7.60;89.40
7606;DHT22;3844;53.360;9.738;2022-12-26T06:47:09;7.60;89.40
7606;DHT22;3844;53.360;9.738;2022-12-26T06:49:10;7.70;89.40
7606;DHT22;3844;53.360;9.738;2022-12-26T06:51:18;7.70;89.30
7606;DHT22;3844;53.360;9.738;2022-12-26T06:53:29;7.70;89.40
7606;DHT22;3844;53.360;9.738;2022-12-26T06:55:35;7.70;89.40
7606;DHT22;3844;53.360;9.738;2022-12-26T06:59:48;7.70;89.30
7606;DHT22;3844;53.360;9.738;2022-12-26T07:03:53;7.70;89.30
7606;DHT22;3844;53.360;9.738;2022-12-26T07:06:01;7.70;89.30
7606;DHT22;3844;53.360;9.738;2022-12-26T07:08:10;7.80;89.30
7606;DHT22;3844;53.360;9.738;2022-12-26T07:10:11;7.80;89.30
7606;DHT22;3844;53.360;9.738;2022-12-26T07:14:13;7.80;89.30
7606;DHT22;3844;53.360;9.738;2022-12-26T07:18:17;7.80;89.30
7606;DHT22;3844;53.360;9.738;2022-12-26T07:22:22;7.80;89.30
7606;DHT22;3844;53.360;9.738;2022-12-26T07:26:24;7.80;89.30
7606;DHT22;3844;53.360;9.738;2022-12-26T07:28:27;7.80;89.30
7606;DHT22;3844;53.360;9.738;2022-12-26T07:30:28;7.80;89.30
7606;DHT22;3844;53.360;9.738;2022-12-26T07:32:28;7.80;89.30
7606;DHT22;3844;53.360;9.738;2022-12-26T07:36:31;7.80;89.20
7606;DHT22;3844;53.360;9.738;2022-12-26T07:38:32;7.80;89.30
7606;DHT22;3844;53.360;9.738;2022-12-26T07:40:33;7.80;89.20
7606;DHT22;3844;53.360;9.738;2022-12-26T07:44:34;7.90;89.10
7606;DHT22;3844;53.360;9.738;2022-12-26T07:46:38;7.90;89.20
7606;DHT22;3844;53.360;9.738;2022-12-26T07:48:39;7.90;89.10
7606;DHT22;3844;53.360;9.738;2022-12-26T07:50:42;7.90;89.10
7606;DHT22;3844;53.360;9.738;2022-12-26T07:52:46;7.90;89.10
7606;DHT22;3844;53.360;9.738;2022-12-26T07:54:47;7.90;89.10
7606;DHT22;3844;53.360;9.738;2022-12-26T07:58:50;7.90;89.10
7606;DHT22;3844;53.360;9.738;2022-12-26T08:04:55;7.90;89.10
7606;DHT22;3844;53.360;9.738;2022-12-26T08:06:56;7.90;89.10
7606;DHT22;3844;53.360;9.738;2022-12-26T08:09:00;7.90;89.10
7606;DHT22;3844;53.360;9.738;2022-12-26T08:11:02;7.80;89.20
7606;DHT22;3844;53.360;9.738;2022-12-26T08:13:06;7.80;89.20
7606;DHT22;3844;53.360;9.738;2022-12-26T08:15:12;7.90;89.10
7606;DHT22;3844;53.360;9.738;2022-12-26T08:17:13;7.80;89.20
7606;DHT22;3844;53.360;9.738;2022-12-26T08:19:14;7.80;89.20
7606;DHT22;3844;53.360;9.738;2022-12-26T08:21:15;7.80;89.30
7606;DHT22;3844;53.360;9.738;2022-12-26T08:23:19;7.80;89.20
7606;DHT22;3844;53.360;9.738;2022-12-26T08:25:23;7.90;89.10
7606;DHT22;3844;53.360;9.738;2022-12-26T08:31:31;7.90;89.10
7606;DHT22;3844;53.360;9.738;2022-12-26T08:33:34;7.90;89.10
7606;DHT22;3844;53.360;9.738;2022-12-26T08:35:35;7.90;89.10
7606;DHT22;3844;53.360;9.738;2022-12-26T08:39:37;8.00;89.10
7606;DHT22;3844;53.360;9.738;2022-12-26T08:41:40;8.00;89.10
7606;DHT22;3844;53.360;9.738;2022-12-26T08:43:51;8.00;89.10
7606;DHT22;3844;53.360;9.738;2022-12-26T08:46:10;8.00;89.10
7606;DHT22;3844;53.360;9.738;2022-12-26T08:48:11;8.00;89.10
7606;DHT22;3844;53.360;9.738;2022-12-26T08:50:17;8.00;89.10
7606;DHT22;3844;53.360;9.738;2022-12-26T08:52:20;8.10;89.00
7606;DHT22;3844;53.360;9.738;2022-12-26T08:54:20;8.10;89.10
7606;DHT22;3844;53.360;9.738;2022-12-26T08:56:25;8.10;89.00
7606;DHT22;3844;53.360;9.738;2022-12-26T09:00:27;8.10;89.10
7606;DHT22;3844;53.360;9.738;2022-12-26T09:04:34;8.20;89.00
7606;DHT22;3844;53.360;9.738;2022-12-26T09:06:37;8.20;89.00
7606;DHT22;3844;53.360;9.738;2022-12-26T09:08:55;8.20;89.00
7606;DHT22;3844;53.360;9.738;2022-12-26T09:11:22;8.20;89.00
7606;DHT22;3844;53.360;9.738;2022-12-26T09:13:26;8.20;89.00
7606;DHT22;3844;53.360;9.738;2022-12-26T09:15:32;8.20;89.00
7606;DHT22;3844;53.360;9.738;2022-12-26T09:17:36;8.20;89.00
7606;DHT22;3844;53.360;9.738;2022-12-26T09:19:39;8.20;89.00
7606;DHT22;3844;53.360;9.738;2022-12-26T09:21:40;8.20;89.00
7606;DHT22;3844;53.360;9.738;2022-12-26T09:23:41;8.20;89.00
7606;DHT22;3844;53.360;9.738;2022-12-26T09:25:42;8.20;89.00
7606;DHT22;3844;53.360;9.738;2022-12-26T09:27:44;8.20;89.00
7606;DHT22;3844;53.360;9.738;2022-12-26T09:29:45;8.20;89.00
7606;DHT22;3844;53.360;9.738;2022-12-26T09:33:47;8.20;89.00
7606;DHT22;3844;53.360;9.738;2022-12-26T09:37:52;8.20;89.00
7606;DHT22;3844;53.360;9.738;2022-12-26T09:39:56;8.30;89.00
7606;DHT22;3844;53.360;9.738;2022-12-26T09:47:34;8.30;89.00
7606;DHT22;3844;53.360;9.738;2022-12-26T09:51:59;8.30;89.00
7606;DHT22;3844;53.360;9.738;2022-12-26T09:54:03;8.30;89.00
7606;DHT22;3844;53.360;9.738;2022-12-26T09:56:06;8.30;89.00
7606;DHT22;3844;53.360;9.738;2022-12-26T10:00:32;8.30;88.90
7606;DHT22;3844;53.360;9.738;2022-12-26T10:02:35;8.30;89.00
7606;DHT22;3844;53.360;9.738;2022-12-26T10:04:36;8.30;89.00
7606;DHT22;3844;53.360;9.738;2022-12-26T10:06:43;8.30;89.00
7606;DHT22;3844;53.360;9.738;2022-12-26T10:11:17;8.30;89.00
7606;DHT22;3844;53.360;9.738;2022-12-26T10:17:59;8.40;89.00
7606;DHT22;3844;53.360;9.738;2022-12-26T10:24:49;8.50;89.00
7606;DHT22;3844;53.360;9.738;2022-12-26T10:26:55;8.40;89.00
7606;DHT22;3844;53.360;9.738;2022-12-26T10:33:58;8.60;88.80
7606;DHT22;3844;53.360;9.738;2022-12-26T10:36:00;8.60;88.80
7606;DHT22;3844;53.360;9.738;2022-12-26T10:38:26;8.70;88.90
7606;DHT22;3844;53.360;9.738;2022-12-26T10:40:39;8.60;88.90
7606;DHT22;3844;53.360;9.738;2022-12-26T10:42:42;8.60;88.90
7606;DHT22;3844;53.360;9.738;2022-12-26T10:47:01;8.60;89.10
7606;DHT22;3844;53.360;9.738;2022-12-26T10:49:09;8.50;89.10
7606;DHT22;3844;53.360;9.738;2022-12-26T10:51:10;8.50;89.10
7606;DHT22;3844;53.360;9.738;2022-12-26T10:53:14;8.50;89.10
7606;DHT22;3844;53.360;9.738;2022-12-26T10:55:18;8.50;89.00
7606;DHT22;3844;53.360;9.738;2022-12-26T10:57:21;8.50;89.10
7606;DHT22;3844;53.360;9.738;2022-12-26T11:01:37;8.50;89.20
7606;DHT22;3844;53.360;9.738;2022-12-26T11:03:57;8.50;89.30
7606;DHT22;3844;53.360;9.738;2022-12-26T11:06:03;8.50;89.20
7606;DHT22;3844;53.360;9.738;2022-12-26T11:08:15;8.50;89.30
7606;DHT22;3844;53.360;9.738;2022-12-26T11:10:23;8.50;89.30
7606;DHT22;3844;53.360;9.738;2022-12-26T11:12:41;8.50;89.40
7606;DHT22;3844;53.360;9.738;2022-12-26T11:14:42;8.50;89.30
7606;DHT22;3844;53.360;9.738;2022-12-26T11:16:48;8.50;89.30
7606;DHT22;3844;53.360;9.738;2022-12-26T11:18:50;8.50;89.20
7606;DHT22;3844;53.360;9.738;2022-12-26T11:20:51;8.50;89.30
7606;DHT22;3844;53.360;9.738;2022-12-26T11:22:53;8.50;89.20
7606;DHT22;3844;53.360;9.738;2022-12-26T11:27:17;8.50;89.30
7606;DHT22;3844;53.360;9.738;2022-12-26T11:29:21;8.60;89.30
7606;DHT22;3844;53.360;9.738;2022-12-26T11:31:24;8.50;89.40
7606;DHT22;3844;53.360;9.738;2022-12-26T11:33:33;8.60;89.40
7606;DHT22;3844;53.360;9.738;2022-12-26T11:35:37;8.50;89.30
7606;DHT22;3844;53.360;9.738;2022-12-26T11:37:45;8.50;89.60
7606;DHT22;3844;53.360;9.738;2022-12-26T11:39:48;8.60;89.50
7606;DHT22;3844;53.360;9.738;2022-12-26T11:44:52;8.50;89.50
7606;DHT22;3844;53.360;9.738;2022-12-26T11:47:22;8.60;89.60
7606;DHT22;3844;53.360;9.738;2022-12-26T12:00:27;8.70;89.50
7606;DHT22;3844;53.360;9.738;2022-12-26T12:02:30;8.70;89.60
7606;DHT22;3844;53.360;9.738;2022-12-26T12:04:34;8.70;89.60
7606;DHT22;3844;53.360;9.738;2022-12-26T12:07:32;8.80;89.60
7606;DHT22;3844;53.360;9.738;2022-12-26T12:09:48;8.70;89.80
7606;DHT22;3844;53.360;9.738;2022-12-26T12:14:29;8.70;89.80
7606;DHT22;3844;53.360;9.738;2022-12-26T12:18:50;8.70;90.00
7606;DHT22;3844;53.360;9.738;2022-12-26T12:38:55;8.70;90.10
7606;DHT22;3844;53.360;9.738;2022-12-26T12:49:19;8.70;90.30
7606;DHT22;3844;53.360;9.738;2022-12-26T13:00:45;8.80;91.00
7606;DHT22;3844;53.360;9.738;2022-12-26T13:03:11;8.80;91.10
7606;DHT22;3844;53.360;9.738;2022-12-26T13:08:12;8.80;91.90
7606;DHT22;3844;53.360;9.738;2022-12-26T13:10:35;8.80;92.10
7606;DHT22;3844;53.360;9.738;2022-12-26T13:12:38;8.80;92.70
7606;DHT22;3844;53.360;9.738;2022-12-26T13:14:57;8.80;93.40
7606;DHT22;3844;53.360;9.738;2022-12-26T13:17:12;8.70;94.90
7606;DHT22;3844;53.360;9.738;2022-12-26T13:19:31;8.60;95.70
7606;DHT22;3844;53.360;9.738;2022-12-26T13:21:39;8.60;95.70
7606;DHT22;3844;53.360;9.738;2022-12-26T13:23:47;8.60;95.70
7606;DHT22;3844;53.360;9.738;2022-12-26T13:26:32;8.60;95.70
7606;DHT22;3844;53.360;9.738;2022-12-26T13:28:49;8.60;95.70
7606;DHT22;3844;53.360;9.738;2022-12-26T13:30:55;8.70;95.70
7606;DHT22;3844;53.360;9.738;2022-12-26T13:32:58;8.70;95.70
7606;DHT22;3844;53.360;9.738;2022-12-26T13:40:15;8.40;95.70
7606;DHT22;3844;53.360;9.738;2022-12-26T13:42:20;8.20;95.70
7606;DHT22;3844;53.360;9.738;2022-12-26T13:44:47;8.10;95.70
7606;DHT22;3844;53.360;9.738;2022-12-26T13:46:56;8.10;95.70
7606;DHT22;3844;53.360;9.738;2022-12-26T13:49:00;7.90;95.70
7606;DHT22;3844;53.360;9.738;2022-12-26T13:51:02;7.80;95.70
7606;DHT22;3844;53.360;9.738;2022-12-26T13:53:42;7.70;95.70
7606;DHT22;3844;53.360;9.738;2022-12-26T13:56:04;7.60;95.70
7606;DHT22;3844;53.360;9.738;2022-12-26T14:00:45;7.50;95.70
7606;DHT22;3844;53.360;9.738;2022-12-26T14:03:25;7.40;95.70
7606;DHT22;3844;53.360;9.738;2022-12-26T14:10:37;7.30;95.70
7606;DHT22;3844;53.360;9.738;2022-12-26T14:15:32;7.20;95.70
7606;DHT22;3844;53.360;9.738;2022-12-26T14:38:21;6.90;95.70
7606;DHT22;3844;53.360;9.738;2022-12-26T14:40:29;6.90;95.70
7606;DHT22;3844;53.360;9.738;2022-12-26T14:42:30;6.80;95.70
7606;DHT22;3844;53.360;9.738;2022-12-26T14:44:54;6.70;95.70
7606;DHT22;3844;53.360;9.738;2022-12-26T14:46:59;6.60;95.70
7606;DHT22;3844;53.360;9.738;2022-12-26T14:49:21;6.60;95.70
7606;DHT22;3844;53.360;9.738;2022-12-26T14:51:28;6.50;95.70
7606;DHT22;3844;53.360;9.738;2022-12-26T14:53:32;6.50;95.70
7606;DHT22;3844;53.360;9.738;2022-12-26T14:57:50;6.40;95.70
7606;DHT22;3844;53.360;9.738;2022-12-26T15:00:30;6.40;95.70
7606;DHT22;3844;53.360;9.738;2022-12-26T15:02:31;6.30;95.70
7606;DHT22;3844;53.360;9.738;2022-12-26T15:20:57;6.10;95.70
7606;DHT22;3844;53.360;9.738;2022-12-26T15:25:42;6.00;95.70
7606;DHT22;3844;53.360;9.738;2022-12-26T15:28:16;6.00;95.70
7606;DHT22;3844;53.360;9.738;2022-12-26T15:33:37;6.00;95.70
7606;DHT22;3844;53.360;9.738;2022-12-26T15:37:57;5.90;95.70
7606;DHT22;3844;53.360;9.738;2022-12-26T15:40:22;5.80;95.70
7606;DHT22;3844;53.360;9.738;2022-12-26T15:54:06;5.40;95.70
7606;DHT22;3844;53.360;9.738;2022-12-26T15:59:08;5.20;95.70
7606;DHT22;3844;53.360;9.738;2022-12-26T16:01:12;5.20;95.70
7606;DHT22;3844;53.360;9.738;2022-12-26T16:09:58;5.10;95.70
7606;DHT22;3844;53.360;9.738;2022-12-26T16:11:59;5.10;95.70
7606;DHT22;3844;53.360;9.738;2022-12-26T16:14:02;5.00;95.70
7606;DHT22;3844;53.360;9.738;2022-12-26T16:16:03;5.10;95.70
7606;DHT22;3844;53.360;9.738;2022-12-26T16:18:19;5.00;95.70
7606;DHT22;3844;53.360;9.738;2022-12-26T16:22:42;5.00;95.70
7606;DHT22;3844;53.360;9.738;2022-12-26T16:24:44;4.90;95.70
7606;DHT22;3844;53.360;9.738;2022-12-26T16:26:46;4.90;95.70
7606;DHT22;3844;53.360;9.738;2022-12-26T16:32:49;4.70;95.70
7606;DHT22;3844;53.360;9.738;2022-12-26T16:34:50;4.60;95.70
7606;DHT22;3844;53.360;9.738;2022-12-26T16:38:53;4.50;95.70
7606;DHT22;3844;53.360;9.738;2022-12-26T16:43:01;4.50;95.70
7606;DHT22;3844;53.360;9.738;2022-12-26T16:45:03;4.50;95.70
7606;DHT22;3844;53.360;9.738;2022-12-26T16:47:08;4.60;95.70
7606;DHT22;3844;53.360;9.738;2022-12-26T16:49:10;4.60;95.70
7606;DHT22;3844;53.360;9.738;2022-12-26T16:55:37;4.70;95.70
7606;DHT22;3844;53.360;9.738;2022-12-26T16:57:40;4.70;95.70
7606;DHT22;3844;53.360;9.738;2022-12-26T16:59:50;4.80;95.70
7606;DHT22;3844;53.360;9.738;2022-12-26T17:01:57;4.80;95.70
7606;DHT22;3844;53.360;9.738;2022-12-26T17:06:13;4.80;95.70
7606;DHT22;3844;53.360;9.738;2022-12-26T17:08:14;4.80;95.70
7606;DHT22;3844;53.360;9.738;2022-12-26T17:10:26;4.80;95.70
7606;DHT22;3844;53.360;9.738;2022-12-26T17:12:32;4.80;95.70
7606;DHT22;3844;53.360;9.738;2022-12-26T17:14:37;4.70;95.70
7606;DHT22;3844;53.360;9.738;2022-12-26T17:18:54;4.70;95.70
7606;DHT22;3844;53.360;9.738;2022-12-26T17:21:34;4.70;95.70
7606;DHT22;3844;53.360;9.738;2022-12-26T17:23:37;4.70;95.70
7606;DHT22;3844;53.360;9.738;2022-12-26T17:30:23;4.70;95.70
7606;DHT22;3844;53.360;9.738;2022-12-26T17:34:30;4.60;95.70
7606;DHT22;3844;53.360;9.738;2022-12-26T17:36:31;4.60;95.70
7606;DHT22;3844;53.360;9.738;2022-12-26T17:38:33;4.60;95.70
7606;DHT22;3844;53.360;9.738;2022-12-26T17:40:36;4.50;95.70
7606;DHT22;3844;53.360;9.738;2022-12-26T17:43:18;4.50;95.70
7606;DHT22;3844;53.360;9.738;2022-12-26T17:45:25;4.40;95.70
7606;DHT22;3844;53.360;9.738;2022-12-26T17:47:27;4.40;95.70
7606;DHT22;3844;53.360;9.738;2022-12-26T17:53:33;4.30;95.70
7606;DHT22;3844;53.360;9.738;2022-12-26T17:55:34;4.20;95.70
7606;DHT22;3844;53.360;9.738;2022-12-26T17:57:35;4.20;95.70
7606;DHT22;3844;53.360;9.738;2022-12-26T18:01:37;4.10;95.70
7606;DHT22;3844;53.360;9.738;2022-12-26T18:05:39;4.00;95.70
7606;DHT22;3844;53.360;9.738;2022-12-26T18:07:41;3.90;95.70
7606;DHT22;3844;53.360;9.738;2022-12-26T18:09:42;3.90;95.70
7606;DHT22;3844;53.360;9.738;2022-12-26T18:15:45;3.60;95.70
7606;DHT22;3844;53.360;9.738;2022-12-26T18:17:48;3.60;95.70
7606;DHT22;3844;53.360;9.738;2022-12-26T18:25:55;3.50;95.70
7606;DHT22;3844;53.360;9.738;2022-12-26T18:27:57;3.50;95.70
7606;DHT22;3844;53.360;9.738;2022-12-26T18:29:59;3.40;95.70
7606;DHT22;3844;53.360;9.738;2022-12-26T18:36:02;3.20;95.70
7606;DHT22;3844;53.360;9.738;2022-12-26T18:40:05;3.20;95.70
7606;DHT22;3844;53.360;9.738;2022-12-26T18:42:10;3.20;95.70
7606;DHT22;3844;53.360;9.738;2022-12-26T18:46:23;3.20;95.70
7606;DHT22;3844;53.360;9.738;2022-12-26T18:48:24;3.10;95.70
7606;DHT22;3844;53.360;9.738;2022-12-26T18:50:25;3.10;95.70
7606;DHT22;3844;53.360;9.738;2022-12-26T18:54:27;3.10;95.70
7606;DHT22;3844;53.360;9.738;2022-12-26T18:58:29;3.00;95.70
7606;DHT22;3844;53.360;9.738;2022-12-26T19:00:30;3.00;95.70
7606;DHT22;3844;53.360;9.738;2022-12-26T19:06:33;3.10;95.70
7606;DHT22;3844;53.360;9.738;2022-12-26T19:10:36;3.10;95.70
7606;DHT22;3844;53.360;9.738;2022-12-26T19:14:38;3.00;95.70
7606;DHT22;3844;53.360;9.738;2022-12-26T19:18:39;3.00;95.70
7606;DHT22;3844;53.360;9.738;2022-12-26T19:20:43;3.00;95.70
7606;DHT22;3844;53.360;9.738;2022-12-26T19:22:44;3.00;95.70
7606;DHT22;3844;53.360;9.738;2022-12-26T19:24:44;3.00;95.70
7606;DHT22;3844;53.360;9.738;2022-12-26T19:28:50;3.00;95.70
7606;DHT22;3844;53.360;9.738;2022-12-26T19:32:52;2.90;95.70
7606;DHT22;3844;53.360;9.738;2022-12-26T19:41:11;2.80;95.70
7606;DHT22;3844;53.360;9.738;2022-12-26T19:43:12;2.80;95.70
7606;DHT22;3844;53.360;9.738;2022-12-26T19:49:15;2.80;95.70
7606;DHT22;3844;53.360;9.738;2022-12-26T19:51:17;2.80;95.70
7606;DHT22;3844;53.360;9.738;2022-12-26T20:01:26;2.80;95.70
7606;DHT22;3844;53.360;9.738;2022-12-26T20:07:29;2.60;95.70
7606;DHT22;3844;53.360;9.738;2022-12-26T20:09:30;2.60;95.70
7606;DHT22;3844;53.360;9.738;2022-12-26T20:11:33;2.60;95.70
7606;DHT22;3844;53.360;9.738;2022-12-26T20:13:35;2.60;95.70
7606;DHT22;3844;53.360;9.738;2022-12-26T20:17:36;2.60;95.70
7606;DHT22;3844;53.360;9.738;2022-12-26T20:23:39;2.50;95.70
7606;DHT22;3844;53.360;9.738;2022-12-26T20:29:42;2.40;95.70
7606;DHT22;3844;53.360;9.738;2022-12-26T20:31:44;2.40;95.70
7606;DHT22;3844;53.360;9.738;2022-12-26T20:33:47;2.30;95.70
7606;DHT22;3844;53.360;9.738;2022-12-26T20:35:48;2.30;95.70
7606;DHT22;3844;53.360;9.738;2022-12-26T20:43:54;2.30;95.70
7606;DHT22;3844;53.360;9.738;2022-12-26T20:49:58;2.30;95.70
7606;DHT22;3844;53.360;9.738;2022-12-26T20:54:00;2.20;95.70
7606;DHT22;3844;53.360;9.738;2022-12-26T20:56:01;2.20;95.70
7606;DHT22;3844;53.360;9.738;2022-12-26T20:58:02;2.10;95.70
7606;DHT22;3844;53.360;9.738;2022-12-26T21:00:03;2.10;95.70
7606;DHT22;3844;53.360;9.738;2022-12-26T21:02:05;2.10;95.70
7606;DHT22;3844;53.360;9.738;2022-12-26T21:04:06;2.10;95.70
7606;DHT22;3844;53.360;9.738;2022-12-26T21:06:13;2.20;95.70
7606;DHT22;3844;53.360;9.738;2022-12-26T21:14:19;2.20;95.70
7606;DHT22;3844;53.360;9.738;2022-12-26T21:16:24;2.20;95.70
7606;DHT22;3844;53.360;9.738;2022-12-26T21:24:30;2.30;95.70
7606;DHT22;3844;53.360;9.738;2022-12-26T21:26:33;2.40;95.70
7606;DHT22;3844;53.360;9.738;2022-12-26T21:28:34;2.40;95.70
7606;DHT22;3844;53.360;9.738;2022-12-26T21:32:36;2.40;95.70
7606;DHT22;3844;53.360;9.738;2022-12-26T21:34:37;2.40;95.70
7606;DHT22;3844;53.360;9.738;2022-12-26T21:36:38;2.50;95.70
7606;DHT22;3844;53.360;9.738;2022-12-26T21:38:40;2.50;95.70
7606;DHT22;3844;53.360;9.738;2022-12-26T21:40:41;2.50;95.70
7606;DHT22;3844;53.360;9.738;2022-12-26T21:54:49;2.60;95.70
7606;DHT22;3844;53.360;9.738;2022-12-26T21:57:08;2.60;95.70
7606;DHT22;3844;53.360;9.738;2022-12-26T21:59:09;2.60;95.70
7606;DHT22;3844;53.360;9.738;2022-12-26T22:01:29;2.60;95.70